sensor_id;sensor_type;location;lat;lon;timestamp;P1;durP1;ratioP1;P2;durP2;ratioP2
15356;SDS011;7778;48.792;9.260;2023-06-14T00:00:40;6.18;;;3.25;;
15356;SDS011;7778;48.792;9.260;2023-06-14T00:03:25;5.55;;;3.25;;
15356;SDS011;7778;48.792;9.260;2023-06-14T00:06:11;7.60;;;3.53;;
15356;SDS011;7778;48.792;9.260;2023-06-14T00:08:56;5.07;;;3.63;;
15356;SDS011;7778;48.792;9.260;2023-06-14T00:11:42;5.68;;;3.63;;
15356;SDS011;7778;48.792;9.260;2023-06-14T00:14:29;5.32;;;3.30;;
15356;SDS011;7778;48.792;9.260;2023-06-14T00:17:15;6.32;;;3.85;;
15356;SDS011;7778;48.792;9.260;2023-06-14T00:20:02;6.43;;;3.65;;
15356;SDS011;7778;48.792;9.260;2023-06-14T00:22:51;7.07;;;3.67;;
15356;SDS011;7778;48.792;9.260;2023-06-14T00:25:37;5.93;;;3.55;;
15356;SDS011;7778;48.792;9.260;2023-06-14T00:28:23;6.00;;;3.45;;
15356;SDS011;7778;48.792;9.260;2023-06-14T00:31:10;7.55;;;3.78;;
15356;SDS011;7778;48.792;9.260;2023-06-14T00:33:55;6.30;;;3.97;;
15356;SDS011;7778;48.792;9.260;2023-06-14T00:36:41;6.57;;;3.80;;
15356;SDS011;7778;48.792;9.260;2023-06-14T00:39:26;4.97;;;3.78;;
15356;SDS011;7778;48.792;9.260;2023-06-14T00:42:22;8.82;;;4.57;;
15356;SDS011;7778;48.792;9.260;2023-06-14T00:45:10;5.03;;;3.50;;
15356;SDS011;7778;48.792;9.260;2023-06-14T00:47:57;7.00;;;3.95;;
15356;SDS011;7778;48.792;9.260;2023-06-14T00:50:45;5.57;;;3.85;;
15356;SDS011;7778;48.792;9.260;2023-06-14T00:53:32;7.40;;;4.35;;
15356;SDS011;7778;48.792;9.260;2023-06-14T00:56:19;7.78;;;4.55;;
15356;SDS011;7778;48.792;9.260;2023-06-14T00:59:05;4.90;;;3.50;;
15356;SDS011;7778;48.792;9.260;2023-06-14T01:01:51;8.32;;;4.13;;
15356;SDS011;7778;48.792;9.260;2023-06-14T01:04:38;6.82;;;3.88;;
15356;SDS011;7778;48.792;9.260;2023-06-14T01:07:26;6.57;;;4.40;;
15356;SDS011;7778;48.792;9.260;2023-06-14T01:10:23;8.40;;;4.50;;
15356;SDS011;7778;48.792;9.260;2023-06-14T01:13:19;9.52;;;4.07;;
15356;SDS011;7778;48.792;9.260;2023-06-14T01:16:13;8.15;;;4.15;;
15356;SDS011;7778;48.792;9.260;2023-06-14T01:18:59;7.85;;;4.35;;
15356;SDS011;7778;48.792;9.260;2023-06-14T01:21:48;6.10;;;4.05;;
15356;SDS011;7778;48.792;9.260;2023-06-14T01:24:36;6.63;;;4.10;;
15356;SDS011;7778;48.792;9.260;2023-06-14T01:27:23;6.18;;;4.45;;
15356;SDS011;7778;48.792;9.260;2023-06-14T01:30:12;6.55;;;3.70;;
15356;SDS011;7778;48.792;9.260;2023-06-14T01:32:58;12.85;;;4.85;;
15356;SDS011;7778;48.792;9.260;2023-06-14T01:35:46;7.72;;;4.32;;
15356;SDS011;7778;48.792;9.260;2023-06-14T01:38:33;7.47;;;4.28;;
15356;SDS011;7778;48.792;9.260;2023-06-14T01:41:20;8.57;;;3.90;;
15356;SDS011;7778;48.792;9.260;2023-06-14T01:44:07;7.53;;;4.60;;
15356;SDS011;7778;48.792;9.260;2023-06-14T01:46:54;7.80;;;4.53;;
15356;SDS011;7778;48.792;9.260;2023-06-14T01:49:40;8.02;;;4.47;;
15356;SDS011;7778;48.792;9.260;2023-06-14T01:52:25;8.35;;;4.80;;
15356;SDS011;7778;48.792;9.260;2023-06-14T01:55:11;7.47;;;4.38;;
15356;SDS011;7778;48.792;9.260;2023-06-14T01:57:58;10.30;;;4.82;;
15356;SDS011;7778;48.792;9.260;2023-06-14T02:00:43;9.05;;;4.82;;
15356;SDS011;7778;48.792;9.260;2023-06-14T02:03:31;9.60;;;5.63;;
15356;SDS011;7778;48.792;9.260;2023-06-14T02:06:17;10.05;;;5.25;;
15356;SDS011;7778;48.792;9.260;2023-06-14T02:09:03;11.35;;;5.50;;
15356;SDS011;7778;48.792;9.260;2023-06-14T02:11:49;7.32;;;4.60;;
15356;SDS011;7778;48.792;9.260;2023-06-14T02:14:37;8.88;;;4.80;;
15356;SDS011;7778;48.792;9.260;2023-06-14T02:17:23;8.18;;;5.03;;
15356;SDS011;7778;48.792;9.260;2023-06-14T02:20:08;8.02;;;5.13;;
15356;SDS011;7778;48.792;9.260;2023-06-14T02:22:55;10.65;;;5.13;;
15356;SDS011;7778;48.792;9.260;2023-06-14T02:25:41;11.57;;;5.25;;
15356;SDS011;7778;48.792;9.260;2023-06-14T02:28:28;12.02;;;6.03;;
15356;SDS011;7778;48.792;9.260;2023-06-14T02:31:15;7.88;;;4.90;;
15356;SDS011;7778;48.792;9.260;2023-06-14T02:34:01;13.38;;;5.30;;
15356;SDS011;7778;48.792;9.260;2023-06-14T02:36:46;8.20;;;4.85;;
15356;SDS011;7778;48.792;9.260;2023-06-14T02:39:32;11.48;;;5.38;;
15356;SDS011;7778;48.792;9.260;2023-06-14T02:42:18;10.00;;;5.25;;
15356;SDS011;7778;48.792;9.260;2023-06-14T02:45:04;10.77;;;5.45;;
15356;SDS011;7778;48.792;9.260;2023-06-14T02:47:52;9.60;;;5.13;;
15356;SDS011;7778;48.792;9.260;2023-06-14T02:50:39;8.10;;;4.82;;
15356;SDS011;7778;48.792;9.260;2023-06-14T02:53:25;7.68;;;4.55;;
15356;SDS011;7778;48.792;9.260;2023-06-14T02:56:11;9.27;;;5.45;;
15356;SDS011;7778;48.792;9.260;2023-06-14T02:58:57;7.43;;;4.82;;
15356;SDS011;7778;48.792;9.260;2023-06-14T03:01:44;9.20;;;4.78;;
15356;SDS011;7778;48.792;9.260;2023-06-14T03:04:31;10.70;;;5.10;;
15356;SDS011;7778;48.792;9.260;2023-06-14T03:07:20;9.60;;;4.68;;
15356;SDS011;7778;48.792;9.260;2023-06-14T03:10:07;9.68;;;4.70;;
15356;SDS011;7778;48.792;9.260;2023-06-14T03:12:54;7.97;;;4.82;;
15356;SDS011;7778;48.792;9.260;2023-06-14T03:15:39;7.10;;;4.50;;
15356;SDS011;7778;48.792;9.260;2023-06-14T03:18:26;7.72;;;4.68;;
15356;SDS011;7778;48.792;9.260;2023-06-14T03:21:13;8.57;;;4.85;;
15356;SDS011;7778;48.792;9.260;2023-06-14T03:23:59;13.52;;;5.05;;
15356;SDS011;7778;48.792;9.260;2023-06-14T03:26:46;6.63;;;4.40;;
15356;SDS011;7778;48.792;9.260;2023-06-14T03:29:32;8.23;;;4.47;;
15356;SDS011;7778;48.792;9.260;2023-06-14T03:32:17;7.05;;;4.43;;
15356;SDS011;7778;48.792;9.260;2023-06-14T03:35:03;9.38;;;4.97;;
15356;SDS011;7778;48.792;9.260;2023-06-14T03:37:51;7.72;;;4.10;;
15356;SDS011;7778;48.792;9.260;2023-06-14T03:40:36;7.43;;;3.60;;
15356;SDS011;7778;48.792;9.260;2023-06-14T03:43:24;8.32;;;4.38;;
15356;SDS011;7778;48.792;9.260;2023-06-14T03:46:09;6.57;;;4.07;;
15356;SDS011;7778;48.792;9.260;2023-06-14T03:48:55;7.43;;;3.63;;
15356;SDS011;7778;48.792;9.260;2023-06-14T03:51:40;5.97;;;3.90;;
15356;SDS011;7778;48.792;9.260;2023-06-14T03:54:27;7.25;;;4.10;;
15356;SDS011;7778;48.792;9.260;2023-06-14T04:13:20;6.93;;;3.20;;
15356;SDS011;7778;48.792;9.260;2023-06-14T04:16:06;6.38;;;4.25;;
15356;SDS011;7778;48.792;9.260;2023-06-14T04:18:52;11.05;;;4.95;;
15356;SDS011;7778;48.792;9.260;2023-06-14T04:21:39;8.95;;;4.85;;
15356;SDS011;7778;48.792;9.260;2023-06-14T04:24:24;6.25;;;4.22;;
15356;SDS011;7778;48.792;9.260;2023-06-14T04:27:12;8.82;;;4.57;;
15356;SDS011;7778;48.792;9.260;2023-06-14T04:29:59;7.75;;;4.30;;
15356;SDS011;7778;48.792;9.260;2023-06-14T04:32:46;7.13;;;3.67;;
15356;SDS011;7778;48.792;9.260;2023-06-14T04:35:32;6.88;;;4.50;;
15356;SDS011;7778;48.792;9.260;2023-06-14T04:38:19;7.50;;;4.07;;
15356;SDS011;7778;48.792;9.260;2023-06-14T04:41:09;8.93;;;3.88;;
15356;SDS011;7778;48.792;9.260;2023-06-14T04:43:54;6.65;;;4.38;;
15356;SDS011;7778;48.792;9.260;2023-06-14T04:46:42;6.88;;;3.95;;
15356;SDS011;7778;48.792;9.260;2023-06-14T04:49:29;8.95;;;4.50;;
15356;SDS011;7778;48.792;9.260;2023-06-14T04:52:16;7.20;;;4.35;;
15356;SDS011;7778;48.792;9.260;2023-06-14T04:55:04;9.27;;;4.18;;
15356;SDS011;7778;48.792;9.260;2023-06-14T04:57:51;7.60;;;4.40;;
15356;SDS011;7778;48.792;9.260;2023-06-14T05:00:37;6.90;;;4.57;;
15356;SDS011;7778;48.792;9.260;2023-06-14T05:03:24;7.93;;;4.25;;
15356;SDS011;7778;48.792;9.260;2023-06-14T05:06:10;5.45;;;3.75;;
15356;SDS011;7778;48.792;9.260;2023-06-14T05:08:55;7.03;;;4.15;;
15356;SDS011;7778;48.792;9.260;2023-06-14T05:11:42;5.65;;;3.90;;
15356;SDS011;7778;48.792;9.260;2023-06-14T05:14:28;9.50;;;3.63;;
15356;SDS011;7778;48.792;9.260;2023-06-14T05:17:14;8.70;;;3.97;;
15356;SDS011;7778;48.792;9.260;2023-06-14T05:20:02;6.07;;;4.18;;
15356;SDS011;7778;48.792;9.260;2023-06-14T05:22:49;7.55;;;4.10;;
15356;SDS011;7778;48.792;9.260;2023-06-14T05:25:35;5.97;;;3.97;;
15356;SDS011;7778;48.792;9.260;2023-06-14T05:28:21;5.88;;;3.20;;
15356;SDS011;7778;48.792;9.260;2023-06-14T05:31:06;5.25;;;3.95;;
15356;SDS011;7778;48.792;9.260;2023-06-14T05:33:52;6.43;;;4.18;;
15356;SDS011;7778;48.792;9.260;2023-06-14T05:36:39;6.45;;;3.53;;
15356;SDS011;7778;48.792;9.260;2023-06-14T05:39:25;4.50;;;3.42;;
15356;SDS011;7778;48.792;9.260;2023-06-14T05:42:12;7.07;;;3.45;;
15356;SDS011;7778;48.792;9.260;2023-06-14T05:44:57;5.40;;;3.78;;
15356;SDS011;7778;48.792;9.260;2023-06-14T05:47:43;5.70;;;3.75;;
15356;SDS011;7778;48.792;9.260;2023-06-14T05:50:29;5.45;;;3.80;;
15356;SDS011;7778;48.792;9.260;2023-06-14T05:53:16;6.07;;;4.13;;
15356;SDS011;7778;48.792;9.260;2023-06-14T05:56:01;6.28;;;4.22;;
15356;SDS011;7778;48.792;9.260;2023-06-14T05:58:47;4.55;;;3.78;;
15356;SDS011;7778;48.792;9.260;2023-06-14T06:01:34;6.97;;;3.55;;
15356;SDS011;7778;48.792;9.260;2023-06-14T06:04:20;5.85;;;3.75;;
15356;SDS011;7778;48.792;9.260;2023-06-14T06:07:05;5.15;;;3.20;;
15356;SDS011;7778;48.792;9.260;2023-06-14T06:09:52;4.47;;;3.53;;
15356;SDS011;7778;48.792;9.260;2023-06-14T06:12:38;5.57;;;3.67;;
15356;SDS011;7778;48.792;9.260;2023-06-14T06:15:24;4.13;;;3.17;;
15356;SDS011;7778;48.792;9.260;2023-06-14T06:18:09;5.53;;;3.63;;
15356;SDS011;7778;48.792;9.260;2023-06-14T06:20:55;7.95;;;4.07;;
15356;SDS011;7778;48.792;9.260;2023-06-14T06:23:41;6.60;;;3.72;;
15356;SDS011;7778;48.792;9.260;2023-06-14T06:26:27;4.97;;;3.42;;
15356;SDS011;7778;48.792;9.260;2023-06-14T06:29:13;5.65;;;3.42;;
15356;SDS011;7778;48.792;9.260;2023-06-14T06:31:58;4.78;;;3.95;;
15356;SDS011;7778;48.792;9.260;2023-06-14T06:34:44;6.32;;;3.60;;
15356;SDS011;7778;48.792;9.260;2023-06-14T06:37:29;5.72;;;3.78;;
15356;SDS011;7778;48.792;9.260;2023-06-14T06:40:15;7.72;;;4.00;;
15356;SDS011;7778;48.792;9.260;2023-06-14T06:43:02;8.95;;;3.83;;
15356;SDS011;7778;48.792;9.260;2023-06-14T06:45:48;4.97;;;3.40;;
15356;SDS011;7778;48.792;9.260;2023-06-14T06:48:33;5.70;;;3.92;;
15356;SDS011;7778;48.792;9.260;2023-06-14T06:51:19;4.93;;;3.35;;
15356;SDS011;7778;48.792;9.260;2023-06-14T06:54:04;5.90;;;3.22;;
15356;SDS011;7778;48.792;9.260;2023-06-14T06:56:51;7.43;;;3.60;;
15356;SDS011;7778;48.792;9.260;2023-06-14T06:59:38;4.85;;;3.60;;
15356;SDS011;7778;48.792;9.260;2023-06-14T07:02:23;6.35;;;3.40;;
15356;SDS011;7778;48.792;9.260;2023-06-14T07:05:09;9.23;;;3.65;;
15356;SDS011;7778;48.792;9.260;2023-06-14T07:07:54;7.82;;;3.40;;
15356;SDS011;7778;48.792;9.260;2023-06-14T07:10:41;8.05;;;3.40;;
15356;SDS011;7778;48.792;9.260;2023-06-14T07:13:26;5.38;;;3.28;;
15356;SDS011;7778;48.792;9.260;2023-06-14T07:16:13;3.88;;;2.85;;
15356;SDS011;7778;48.792;9.260;2023-06-14T07:18:59;7.88;;;3.55;;
15356;SDS011;7778;48.792;9.260;2023-06-14T07:21:44;5.78;;;3.70;;
15356;SDS011;7778;48.792;9.260;2023-06-14T07:24:30;4.90;;;3.03;;
15356;SDS011;7778;48.792;9.260;2023-06-14T07:27:16;4.63;;;3.20;;
15356;SDS011;7778;48.792;9.260;2023-06-14T07:30:01;4.43;;;3.25;;
15356;SDS011;7778;48.792;9.260;2023-06-14T07:32:48;6.65;;;3.67;;
15356;SDS011;7778;48.792;9.260;2023-06-14T07:35:34;3.50;;;3.08;;
15356;SDS011;7778;48.792;9.260;2023-06-14T07:38:19;3.97;;;3.13;;
15356;SDS011;7778;48.792;9.260;2023-06-14T07:41:05;6.30;;;3.70;;
15356;SDS011;7778;48.792;9.260;2023-06-14T07:43:51;4.55;;;3.35;;
15356;SDS011;7778;48.792;9.260;2023-06-14T07:46:36;4.13;;;2.95;;
15356;SDS011;7778;48.792;9.260;2023-06-14T07:49:23;7.45;;;3.15;;
15356;SDS011;7778;48.792;9.260;2023-06-14T07:52:09;5.05;;;2.95;;
15356;SDS011;7778;48.792;9.260;2023-06-14T07:54:55;4.60;;;2.88;;
15356;SDS011;7778;48.792;9.260;2023-06-14T07:57:40;6.03;;;3.33;;
15356;SDS011;7778;48.792;9.260;2023-06-14T08:00:26;8.82;;;3.60;;
15356;SDS011;7778;48.792;9.260;2023-06-14T08:03:12;3.90;;;3.25;;
15356;SDS011;7778;48.792;9.260;2023-06-14T08:05:59;4.78;;;3.45;;
15356;SDS011;7778;48.792;9.260;2023-06-14T08:08:45;5.07;;;3.53;;
15356;SDS011;7778;48.792;9.260;2023-06-14T08:11:30;4.93;;;3.40;;
15356;SDS011;7778;48.792;9.260;2023-06-14T08:14:16;4.20;;;3.28;;
15356;SDS011;7778;48.792;9.260;2023-06-14T08:17:02;6.97;;;3.78;;
15356;SDS011;7778;48.792;9.260;2023-06-14T08:19:48;3.83;;;3.10;;
15356;SDS011;7778;48.792;9.260;2023-06-14T08:22:36;4.95;;;3.53;;
15356;SDS011;7778;48.792;9.260;2023-06-14T08:25:21;4.25;;;3.20;;
15356;SDS011;7778;48.792;9.260;2023-06-14T08:28:07;6.60;;;3.20;;
15356;SDS011;7778;48.792;9.260;2023-06-14T08:30:53;5.85;;;3.47;;
15356;SDS011;7778;48.792;9.260;2023-06-14T08:33:39;4.30;;;3.20;;
15356;SDS011;7778;48.792;9.260;2023-06-14T08:36:26;4.32;;;2.95;;
15356;SDS011;7778;48.792;9.260;2023-06-14T08:39:13;7.38;;;3.08;;
15356;SDS011;7778;48.792;9.260;2023-06-14T08:41:59;3.92;;;2.63;;
15356;SDS011;7778;48.792;9.260;2023-06-14T08:44:48;5.68;;;3.58;;
15356;SDS011;7778;48.792;9.260;2023-06-14T08:47:34;6.72;;;3.70;;
15356;SDS011;7778;48.792;9.260;2023-06-14T08:50:20;4.40;;;3.60;;
15356;SDS011;7778;48.792;9.260;2023-06-14T08:53:07;4.47;;;3.33;;
15356;SDS011;7778;48.792;9.260;2023-06-14T08:55:58;5.30;;;3.30;;
15356;SDS011;7778;48.792;9.260;2023-06-14T08:58:45;4.63;;;3.67;;
15356;SDS011;7778;48.792;9.260;2023-06-14T09:01:33;5.82;;;3.38;;
15356;SDS011;7778;48.792;9.260;2023-06-14T09:04:19;7.00;;;3.20;;
15356;SDS011;7778;48.792;9.260;2023-06-14T09:07:06;5.97;;;3.78;;
15356;SDS011;7778;48.792;9.260;2023-06-14T09:10:04;4.10;;;3.10;;
15356;SDS011;7778;48.792;9.260;2023-06-14T09:12:56;3.90;;;2.97;;
15356;SDS011;7778;48.792;9.260;2023-06-14T09:15:43;5.18;;;3.28;;
15356;SDS011;7778;48.792;9.260;2023-06-14T09:18:34;4.10;;;3.17;;
15356;SDS011;7778;48.792;9.260;2023-06-14T09:21:20;6.22;;;3.85;;
15356;SDS011;7778;48.792;9.260;2023-06-14T09:24:06;5.88;;;3.42;;
15356;SDS011;7778;48.792;9.260;2023-06-14T09:26:59;4.30;;;3.08;;
15356;SDS011;7778;48.792;9.260;2023-06-14T09:29:46;6.22;;;3.25;;
15356;SDS011;7778;48.792;9.260;2023-06-14T09:32:32;4.82;;;3.38;;
15356;SDS011;7778;48.792;9.260;2023-06-14T09:35:23;5.25;;;3.20;;
15356;SDS011;7778;48.792;9.260;2023-06-14T09:38:09;5.47;;;3.38;;
15356;SDS011;7778;48.792;9.260;2023-06-14T09:40:56;6.30;;;3.22;;
15356;SDS011;7778;48.792;9.260;2023-06-14T09:43:43;5.85;;;2.85;;
15356;SDS011;7778;48.792;9.260;2023-06-14T09:46:32;7.03;;;3.10;;
15356;SDS011;7778;48.792;9.260;2023-06-14T09:49:19;4.82;;;3.25;;
15356;SDS011;7778;48.792;9.260;2023-06-14T09:52:05;8.25;;;3.30;;
15356;SDS011;7778;48.792;9.260;2023-06-14T09:54:54;4.00;;;2.88;;
15356;SDS011;7778;48.792;9.260;2023-06-14T09:57:40;6.72;;;2.50;;
15356;SDS011;7778;48.792;9.260;2023-06-14T10:00:27;4.45;;;3.20;;
15356;SDS011;7778;48.792;9.260;2023-06-14T10:03:19;4.55;;;2.58;;
15356;SDS011;7778;48.792;9.260;2023-06-14T10:06:10;3.33;;;2.58;;
15356;SDS011;7778;48.792;9.260;2023-06-14T10:08:56;6.05;;;2.50;;
15356;SDS011;7778;48.792;9.260;2023-06-14T10:11:44;6.03;;;3.30;;
15356;SDS011;7778;48.792;9.260;2023-06-14T10:14:30;6.05;;;3.15;;
15356;SDS011;7778;48.792;9.260;2023-06-14T10:17:20;4.32;;;2.92;;
15356;SDS011;7778;48.792;9.260;2023-06-14T10:20:19;4.82;;;2.72;;
15356;SDS011;7778;48.792;9.260;2023-06-14T10:23:15;4.53;;;2.70;;
15356;SDS011;7778;48.792;9.260;2023-06-14T10:26:05;3.95;;;2.72;;
15356;SDS011;7778;48.792;9.260;2023-06-14T10:28:55;5.07;;;3.47;;
15356;SDS011;7778;48.792;9.260;2023-06-14T10:31:43;3.65;;;2.95;;
15356;SDS011;7778;48.792;9.260;2023-06-14T10:34:30;5.15;;;2.60;;
15356;SDS011;7778;48.792;9.260;2023-06-14T10:37:17;5.32;;;2.85;;
15356;SDS011;7778;48.792;9.260;2023-06-14T10:40:04;3.70;;;2.85;;
15356;SDS011;7778;48.792;9.260;2023-06-14T10:42:52;3.75;;;2.92;;
15356;SDS011;7778;48.792;9.260;2023-06-14T10:45:38;3.85;;;2.75;;
15356;SDS011;7778;48.792;9.260;2023-06-14T10:49:01;3.60;;;2.85;;
15356;SDS011;7778;48.792;9.260;2023-06-14T10:51:49;4.78;;;2.75;;
15356;SDS011;7778;48.792;9.260;2023-06-14T10:54:37;6.10;;;3.15;;
15356;SDS011;7778;48.792;9.260;2023-06-14T10:57:23;5.05;;;3.13;;
15356;SDS011;7778;48.792;9.260;2023-06-14T11:00:09;4.13;;;2.65;;
15356;SDS011;7778;48.792;9.260;2023-06-14T11:03:23;4.45;;;3.17;;
15356;SDS011;7778;48.792;9.260;2023-06-14T11:06:29;4.30;;;2.67;;
15356;SDS011;7778;48.792;9.260;2023-06-14T11:12:50;4.47;;;2.88;;
15356;SDS011;7778;48.792;9.260;2023-06-14T11:15:44;3.53;;;2.75;;
15356;SDS011;7778;48.792;9.260;2023-06-14T11:18:31;4.72;;;2.80;;
15356;SDS011;7778;48.792;9.260;2023-06-14T11:21:17;4.70;;;2.88;;
15356;SDS011;7778;48.792;9.260;2023-06-14T11:24:03;4.57;;;3.08;;
15356;SDS011;7778;48.792;9.260;2023-06-14T11:26:56;5.32;;;2.90;;
15356;SDS011;7778;48.792;9.260;2023-06-14T11:29:47;3.67;;;2.97;;
15356;SDS011;7778;48.792;9.260;2023-06-14T11:32:33;4.13;;;3.10;;
15356;SDS011;7778;48.792;9.260;2023-06-14T11:35:19;4.38;;;2.63;;
15356;SDS011;7778;48.792;9.260;2023-06-14T11:38:07;3.67;;;3.00;;
15356;SDS011;7778;48.792;9.260;2023-06-14T11:40:58;4.47;;;2.60;;
15356;SDS011;7778;48.792;9.260;2023-06-14T11:43:46;4.25;;;3.10;;
15356;SDS011;7778;48.792;9.260;2023-06-14T11:46:31;4.15;;;3.17;;
15356;SDS011;7778;48.792;9.260;2023-06-14T11:49:17;10.45;;;6.13;;
15356;SDS011;7778;48.792;9.260;2023-06-14T11:52:02;6.28;;;3.70;;
15356;SDS011;7778;48.792;9.260;2023-06-14T11:54:49;7.97;;;2.80;;
15356;SDS011;7778;48.792;9.260;2023-06-14T11:57:35;5.13;;;3.42;;
15356;SDS011;7778;48.792;9.260;2023-06-14T12:00:25;3.80;;;2.80;;
15356;SDS011;7778;48.792;9.260;2023-06-14T12:03:12;9.02;;;4.72;;
15356;SDS011;7778;48.792;9.260;2023-06-14T12:06:01;8.35;;;3.08;;
15356;SDS011;7778;48.792;9.260;2023-06-14T12:08:51;5.32;;;3.58;;
15356;SDS011;7778;48.792;9.260;2023-06-14T12:11:40;8.38;;;2.75;;
15356;SDS011;7778;48.792;9.260;2023-06-14T12:14:28;5.70;;;3.58;;
15356;SDS011;7778;48.792;9.260;2023-06-14T12:17:16;5.97;;;3.20;;
15356;SDS011;7778;48.792;9.260;2023-06-14T12:20:06;4.60;;;3.05;;
15356;SDS011;7778;48.792;9.260;2023-06-14T12:22:55;6.22;;;3.10;;
15356;SDS011;7778;48.792;9.260;2023-06-14T12:25:44;6.20;;;3.00;;
15356;SDS011;7778;48.792;9.260;2023-06-14T12:28:30;4.07;;;2.70;;
15356;SDS011;7778;48.792;9.260;2023-06-14T12:31:16;4.13;;;3.15;;
15356;SDS011;7778;48.792;9.260;2023-06-14T12:34:04;5.15;;;3.28;;
15356;SDS011;7778;48.792;9.260;2023-06-14T12:36:53;4.60;;;3.10;;
15356;SDS011;7778;48.792;9.260;2023-06-14T12:39:39;3.30;;;2.72;;
15356;SDS011;7778;48.792;9.260;2023-06-14T12:42:24;4.45;;;3.20;;
15356;SDS011;7778;48.792;9.260;2023-06-14T12:45:10;4.40;;;3.00;;
15356;SDS011;7778;48.792;9.260;2023-06-14T12:47:56;6.50;;;2.88;;
15356;SDS011;7778;48.792;9.260;2023-06-14T12:50:43;5.50;;;2.92;;
15356;SDS011;7778;48.792;9.260;2023-06-14T12:53:29;6.05;;;2.97;;
15356;SDS011;7778;48.792;9.260;2023-06-14T12:56:14;9.73;;;2.60;;
15356;SDS011;7778;48.792;9.260;2023-06-14T12:59:00;3.80;;;2.90;;
15356;SDS011;7778;48.792;9.260;2023-06-14T13:01:46;5.05;;;2.78;;
15356;SDS011;7778;48.792;9.260;2023-06-14T13:04:33;4.53;;;2.97;;
15356;SDS011;7778;48.792;9.260;2023-06-14T13:07:21;3.65;;;2.70;;
15356;SDS011;7778;48.792;9.260;2023-06-14T13:10:07;4.75;;;2.65;;
15356;SDS011;7778;48.792;9.260;2023-06-14T13:12:54;3.45;;;2.80;;
15356;SDS011;7778;48.792;9.260;2023-06-14T13:15:41;4.47;;;2.90;;
15356;SDS011;7778;48.792;9.260;2023-06-14T13:18:27;4.18;;;2.80;;
15356;SDS011;7778;48.792;9.260;2023-06-14T13:21:13;3.83;;;2.72;;
15356;SDS011;7778;48.792;9.260;2023-06-14T13:24:00;5.93;;;2.80;;
15356;SDS011;7778;48.792;9.260;2023-06-14T13:26:45;4.55;;;2.75;;
15356;SDS011;7778;48.792;9.260;2023-06-14T13:29:31;4.63;;;3.30;;
15356;SDS011;7778;48.792;9.260;2023-06-14T13:32:20;5.63;;;2.95;;
15356;SDS011;7778;48.792;9.260;2023-06-14T13:35:07;4.93;;;2.63;;
15356;SDS011;7778;48.792;9.260;2023-06-14T13:37:53;3.60;;;2.80;;
15356;SDS011;7778;48.792;9.260;2023-06-14T13:40:39;3.58;;;2.90;;
15356;SDS011;7778;48.792;9.260;2023-06-14T13:43:25;6.32;;;3.30;;
15356;SDS011;7778;48.792;9.260;2023-06-14T13:46:11;4.40;;;3.03;;
15356;SDS011;7778;48.792;9.260;2023-06-14T13:48:57;3.10;;;2.60;;
15356;SDS011;7778;48.792;9.260;2023-06-14T13:51:44;5.50;;;2.90;;
15356;SDS011;7778;48.792;9.260;2023-06-14T13:54:30;6.05;;;2.80;;
15356;SDS011;7778;48.792;9.260;2023-06-14T13:57:17;3.88;;;2.72;;
15356;SDS011;7778;48.792;9.260;2023-06-14T14:00:03;8.25;;;3.33;;
15356;SDS011;7778;48.792;9.260;2023-06-14T14:02:52;5.38;;;3.10;;
15356;SDS011;7778;48.792;9.260;2023-06-14T14:05:38;4.85;;;2.65;;
15356;SDS011;7778;48.792;9.260;2023-06-14T14:08:24;5.32;;;2.85;;
15356;SDS011;7778;48.792;9.260;2023-06-14T14:11:10;4.30;;;2.80;;
15356;SDS011;7778;48.792;9.260;2023-06-14T14:13:57;3.30;;;2.72;;
15356;SDS011;7778;48.792;9.260;2023-06-14T14:16:43;3.90;;;2.67;;
15356;SDS011;7778;48.792;9.260;2023-06-14T14:19:29;3.95;;;3.38;;
15356;SDS011;7778;48.792;9.260;2023-06-14T14:22:14;3.88;;;2.85;;
15356;SDS011;7778;48.792;9.260;2023-06-14T14:25:00;4.35;;;2.83;;
15356;SDS011;7778;48.792;9.260;2023-06-14T14:27:45;3.80;;;2.67;;
15356;SDS011;7778;48.792;9.260;2023-06-14T14:30:32;4.18;;;2.90;;
15356;SDS011;7778;48.792;9.260;2023-06-14T14:33:18;3.75;;;2.80;;
15356;SDS011;7778;48.792;9.260;2023-06-14T14:36:04;3.60;;;2.78;;
15356;SDS011;7778;48.792;9.260;2023-06-14T14:38:51;4.30;;;2.80;;
15356;SDS011;7778;48.792;9.260;2023-06-14T14:41:37;4.65;;;2.75;;
15356;SDS011;7778;48.792;9.260;2023-06-14T14:44:23;4.15;;;2.78;;
15356;SDS011;7778;48.792;9.260;2023-06-14T14:47:10;5.97;;;2.90;;
15356;SDS011;7778;48.792;9.260;2023-06-14T14:49:56;4.97;;;3.22;;
15356;SDS011;7778;48.792;9.260;2023-06-14T14:52:42;4.55;;;2.60;;
15356;SDS011;7778;48.792;9.260;2023-06-14T14:55:27;4.63;;;2.80;;
15356;SDS011;7778;48.792;9.260;2023-06-14T14:58:14;4.68;;;2.78;;
15356;SDS011;7778;48.792;9.260;2023-06-14T15:01:01;5.22;;;3.75;;
15356;SDS011;7778;48.792;9.260;2023-06-14T15:03:50;4.03;;;2.83;;
15356;SDS011;7778;48.792;9.260;2023-06-14T15:06:36;6.30;;;3.08;;
15356;SDS011;7778;48.792;9.260;2023-06-14T15:09:23;5.55;;;2.90;;
15356;SDS011;7778;48.792;9.260;2023-06-14T15:12:09;6.13;;;3.13;;
15356;SDS011;7778;48.792;9.260;2023-06-14T15:14:55;3.95;;;2.88;;
15356;SDS011;7778;48.792;9.260;2023-06-14T15:17:41;9.57;;;2.83;;
15356;SDS011;7778;48.792;9.260;2023-06-14T15:20:27;4.75;;;3.28;;
15356;SDS011;7778;48.792;9.260;2023-06-14T15:23:13;3.53;;;2.80;;
15356;SDS011;7778;48.792;9.260;2023-06-14T15:26:03;3.97;;;2.97;;
15356;SDS011;7778;48.792;9.260;2023-06-14T15:28:49;6.13;;;3.08;;
15356;SDS011;7778;48.792;9.260;2023-06-14T15:31:35;4.75;;;2.95;;
15356;SDS011;7778;48.792;9.260;2023-06-14T15:34:20;4.40;;;3.70;;
15356;SDS011;7778;48.792;9.260;2023-06-14T15:37:07;9.07;;;3.42;;
15356;SDS011;7778;48.792;9.260;2023-06-14T15:39:53;3.42;;;2.80;;
15356;SDS011;7778;48.792;9.260;2023-06-14T15:42:38;3.97;;;2.90;;
15356;SDS011;7778;48.792;9.260;2023-06-14T15:45:24;3.70;;;2.97;;
15356;SDS011;7778;48.792;9.260;2023-06-14T15:48:10;4.95;;;2.97;;
15356;SDS011;7778;48.792;9.260;2023-06-14T15:50:55;5.60;;;3.20;;
15356;SDS011;7778;48.792;9.260;2023-06-14T15:53:42;4.28;;;2.90;;
15356;SDS011;7778;48.792;9.260;2023-06-14T15:56:28;6.07;;;2.85;;
15356;SDS011;7778;48.792;9.260;2023-06-14T15:59:13;7.45;;;3.25;;
15356;SDS011;7778;48.792;9.260;2023-06-14T16:01:59;3.58;;;2.65;;
15356;SDS011;7778;48.792;9.260;2023-06-14T16:04:44;3.42;;;3.00;;
15356;SDS011;7778;48.792;9.260;2023-06-14T16:07:30;4.93;;;2.70;;
15356;SDS011;7778;48.792;9.260;2023-06-14T16:10:17;3.88;;;3.08;;
15356;SDS011;7778;48.792;9.260;2023-06-14T16:13:03;5.43;;;2.88;;
15356;SDS011;7778;48.792;9.260;2023-06-14T16:15:49;6.85;;;3.40;;
15356;SDS011;7778;48.792;9.260;2023-06-14T16:18:34;6.22;;;2.78;;
15356;SDS011;7778;48.792;9.260;2023-06-14T16:21:20;4.03;;;2.63;;
15356;SDS011;7778;48.792;9.260;2023-06-14T16:24:06;3.30;;;2.75;;
15356;SDS011;7778;48.792;9.260;2023-06-14T16:26:54;4.50;;;2.88;;
15356;SDS011;7778;48.792;9.260;2023-06-14T16:29:39;6.35;;;3.00;;
15356;SDS011;7778;48.792;9.260;2023-06-14T16:32:25;5.35;;;2.78;;
15356;SDS011;7778;48.792;9.260;2023-06-14T16:35:12;3.83;;;3.08;;
15356;SDS011;7778;48.792;9.260;2023-06-14T16:37:57;6.22;;;2.63;;
15356;SDS011;7778;48.792;9.260;2023-06-14T16:40:43;4.10;;;3.15;;
15356;SDS011;7778;48.792;9.260;2023-06-14T16:43:30;4.70;;;2.92;;
15356;SDS011;7778;48.792;9.260;2023-06-14T16:46:16;5.10;;;2.55;;
15356;SDS011;7778;48.792;9.260;2023-06-14T16:49:14;3.88;;;3.10;;
15356;SDS011;7778;48.792;9.260;2023-06-14T16:51:59;5.38;;;3.03;;
15356;SDS011;7778;48.792;9.260;2023-06-14T16:54:45;5.68;;;2.97;;
15356;SDS011;7778;48.792;9.260;2023-06-14T16:57:30;4.22;;;2.97;;
15356;SDS011;7778;48.792;9.260;2023-06-14T17:00:18;3.97;;;2.53;;
15356;SDS011;7778;48.792;9.260;2023-06-14T17:03:04;4.57;;;2.88;;
15356;SDS011;7778;48.792;9.260;2023-06-14T17:05:53;5.53;;;2.90;;
15356;SDS011;7778;48.792;9.260;2023-06-14T17:08:40;4.25;;;2.90;;
15356;SDS011;7778;48.792;9.260;2023-06-14T17:11:27;7.35;;;3.05;;
15356;SDS011;7778;48.792;9.260;2023-06-14T17:14:12;3.28;;;2.72;;
15356;SDS011;7778;48.792;9.260;2023-06-14T17:17:00;4.00;;;2.45;;
15356;SDS011;7778;48.792;9.260;2023-06-14T17:19:45;6.93;;;3.17;;